createdAt,value
2023-03-15T00:00:09.834Z,-2.08
2023-03-15T00:01:09.833Z,-2.00
2023-03-15T00:02:09.896Z,-1.98
2023-03-15T00:03:09.849Z,-1.92
2023-03-15T00:04:09.847Z,-1.94
2023-03-15T00:05:09.850Z,-2.06
2023-03-15T00:06:09.843Z,-1.97
2023-03-15T00:07:09.840Z,-1.95
2023-03-15T00:08:09.846Z,-1.94
2023-03-15T00:09:09.848Z,-1.98
2023-03-15T00:10:09.860Z,-1.94
2023-03-15T00:11:09.852Z,-1.91
2023-03-15T00:12:09.854Z,-1.97
2023-03-15T00:13:09.859Z,-1.92
2023-03-15T00:14:09.858Z,-1.95
2023-03-15T00:15:09.877Z,-1.87
2023-03-15T00:16:09.901Z,-1.94
2023-03-15T00:17:09.861Z,-2.02
2023-03-15T00:18:09.883Z,-2.02
2023-03-15T00:19:09.868Z,-2.15
2023-03-15T00:20:09.871Z,-2.08
2023-03-15T00:21:09.870Z,-2.08
2023-03-15T00:22:09.873Z,-2.09
2023-03-15T00:23:09.878Z,-2.10
2023-03-15T00:24:09.881Z,-2.06
2023-03-15T00:25:09.885Z,-2.06
2023-03-15T00:26:09.897Z,-2.15
2023-03-15T00:27:09.886Z,-2.15
2023-03-15T00:28:09.883Z,-2.12
2023-03-15T00:29:09.893Z,-2.06
2023-03-15T00:30:09.890Z,-2.12
2023-03-15T00:31:09.916Z,-2.08
2023-03-15T00:32:09.892Z,-2.09
2023-03-15T00:33:09.904Z,-2.20
2023-03-15T00:34:09.938Z,-2.21
2023-03-15T00:35:09.899Z,-2.20
2023-03-15T00:36:09.932Z,-2.15
2023-03-15T00:37:09.907Z,-2.08
2023-03-15T00:38:09.906Z,-2.08
2023-03-15T00:39:09.913Z,-2.03
2023-03-15T00:40:09.904Z,-2.06
2023-03-15T00:41:09.930Z,-1.94
2023-03-15T00:42:09.911Z,-1.98
2023-03-15T00:43:09.917Z,-2.03
2023-03-15T00:44:09.917Z,-1.94
2023-03-15T00:45:09.921Z,-1.95
2023-03-15T00:46:09.996Z,-1.95
2023-03-15T00:47:09.923Z,-1.97
2023-03-15T00:48:09.956Z,-2.03
2023-03-15T00:49:09.931Z,-2.09
2023-03-15T00:50:09.945Z,-2.08
2023-03-15T00:51:09.934Z,-2.09
2023-03-15T00:52:09.927Z,-2.03
2023-03-15T00:53:09.933Z,-2.15
2023-03-15T00:54:09.932Z,-2.08
2023-03-15T00:55:09.936Z,-2.10
2023-03-15T00:56:09.939Z,-2.09
2023-03-15T00:57:09.953Z,-2.15
2023-03-15T00:58:09.944Z,-2.32
2023-03-15T00:59:09.944Z,-2.27
2023-03-15T01:00:09.945Z,-2.39
2023-03-15T01:01:09.952Z,-2.39
2023-03-15T01:02:10.058Z,-2.43
2023-03-15T01:03:10.025Z,-2.34
2023-03-15T01:04:09.952Z,-2.35
2023-03-15T01:05:09.962Z,-2.37
2023-03-15T01:06:09.981Z,-2.35
2023-03-15T01:07:09.965Z,-2.30
2023-03-15T01:08:09.958Z,-2.34
2023-03-15T01:09:09.975Z,-2.30
2023-03-15T01:10:09.964Z,-2.34
2023-03-15T01:11:09.971Z,-2.29
2023-03-15T01:12:09.967Z,-2.29
2023-03-15T01:13:09.971Z,-2.35
2023-03-15T01:14:09.968Z,-2.45
2023-03-15T01:15:09.975Z,-2.58
2023-03-15T01:16:10.010Z,-2.50
2023-03-15T01:17:09.978Z,-2.77
2023-03-15T01:18:09.976Z,-2.71
2023-03-15T01:19:09.986Z,-2.79
2023-03-15T01:20:09.985Z,-2.78
2023-03-15T01:21:09.996Z,-2.74
2023-03-15T01:22:10.002Z,-2.68
2023-03-15T01:23:09.987Z,-2.70
2023-03-15T01:24:09.988Z,-2.67
2023-03-15T01:25:09.998Z,-2.77
2023-03-15T01:26:09.992Z,-2.73
2023-03-15T01:27:10.000Z,-2.68
2023-03-15T01:28:09.994Z,-2.79
2023-03-15T01:29:09.999Z,-2.94
2023-03-15T01:30:10.014Z,-2.86
2023-03-15T01:31:10.048Z,-2.92
2023-03-15T01:32:10.009Z,-2.78
2023-03-15T01:33:10.008Z,-2.79
2023-03-15T01:34:10.004Z,-2.96
2023-03-15T01:35:10.010Z,-2.97
2023-03-15T01:36:10.032Z,-3.00
2023-03-15T01:37:10.016Z,-3.09
2023-03-15T01:38:10.029Z,-3.12
2023-03-15T01:39:10.025Z,-3.15
2023-03-15T01:40:10.017Z,-3.10
2023-03-15T01:41:10.035Z,-3.14
2023-03-15T01:42:10.025Z,-3.10
2023-03-15T01:43:10.019Z,-3.10
2023-03-15T01:44:10.021Z,-3.02
2023-03-15T01:45:10.024Z,-3.12
2023-03-15T01:46:10.027Z,-3.15
2023-03-15T01:47:10.120Z,-3.10
2023-03-15T01:48:10.042Z,-3.24
2023-03-15T01:49:10.043Z,-3.21
2023-03-15T01:50:10.025Z,-3.21
2023-03-15T01:51:10.028Z,-3.23
2023-03-15T01:52:10.038Z,-3.14
2023-03-15T01:53:10.049Z,-3.17
2023-03-15T01:54:10.061Z,-3.20
2023-03-15T01:55:10.041Z,-3.10
2023-03-15T01:56:10.033Z,-3.05
2023-03-15T01:57:10.037Z,-3.03
2023-03-15T01:58:10.030Z,-2.99
2023-03-15T01:59:10.052Z,-3.07
2023-03-15T02:00:10.044Z,-3.05
2023-03-15T02:01:10.079Z,-3.03
2023-03-15T02:02:10.079Z,-3.09
2023-03-15T02:03:10.097Z,-3.05
2023-03-15T02:04:10.040Z,-3.09
2023-03-15T02:05:10.053Z,-2.96
2023-03-15T02:06:10.043Z,-3.07
2023-03-15T02:07:10.052Z,-3.02
2023-03-15T02:08:10.047Z,-3.02
2023-03-15T02:09:10.044Z,-3.06
2023-03-15T02:10:10.059Z,-2.94
2023-03-15T02:11:10.079Z,-3.17
2023-03-15T02:12:10.056Z,-3.09
2023-03-15T02:13:10.055Z,-3.17
2023-03-15T02:14:10.041Z,-3.10
2023-03-15T02:15:10.050Z,-3.17
2023-03-15T02:16:10.056Z,-3.20
2023-03-15T02:17:10.051Z,-3.33
2023-03-15T02:18:10.045Z,-3.36
2023-03-15T02:19:10.046Z,-3.30
2023-03-15T02:20:10.055Z,-3.39
2023-03-15T02:21:10.064Z,-3.45
2023-03-15T02:22:10.048Z,-3.46
2023-03-15T02:23:10.053Z,-3.31
2023-03-15T02:24:10.047Z,-3.35
2023-03-15T02:25:10.056Z,-3.28
2023-03-15T02:26:10.103Z,-3.33
2023-03-15T02:27:10.080Z,-3.35
2023-03-15T02:28:10.050Z,-3.27
2023-03-15T02:29:10.054Z,-3.36
2023-03-15T02:30:10.064Z,-3.31
2023-03-15T02:31:10.056Z,-3.21
2023-03-15T02:32:10.057Z,-3.24
2023-03-15T02:33:10.060Z,-3.15
2023-03-15T02:34:10.053Z,-3.17
2023-03-15T02:35:10.059Z,-3.20
2023-03-15T02:36:10.109Z,-3.15
2023-03-15T02:37:10.055Z,-3.15
2023-03-15T02:38:10.052Z,-3.23
2023-03-15T02:39:10.057Z,-3.17
2023-03-15T02:40:10.052Z,-3.10
2023-03-15T02:41:10.057Z,-3.15
2023-03-15T02:42:10.073Z,-3.17
2023-03-15T02:43:10.059Z,-3.17
2023-03-15T02:44:10.081Z,-3.15
2023-03-15T02:45:10.058Z,-3.23
2023-03-15T02:46:10.156Z,-3.33
2023-03-15T02:47:10.059Z,-3.28
2023-03-15T02:48:10.061Z,-3.33
2023-03-15T02:49:10.067Z,-3.35
2023-03-15T02:50:10.061Z,-3.36
2023-03-15T02:51:10.073Z,-3.36
2023-03-15T02:52:10.080Z,-3.35
2023-03-15T02:53:10.063Z,-3.36
2023-03-15T02:54:10.062Z,-3.38
2023-03-15T02:55:10.064Z,-3.31
2023-03-15T02:56:10.066Z,-3.30
2023-03-15T02:57:10.078Z,-3.31
2023-03-15T02:58:10.088Z,-3.36
2023-03-15T02:59:10.068Z,-3.35
2023-03-15T03:00:10.068Z,-3.39
2023-03-15T03:01:10.127Z,-3.43
2023-03-15T03:02:10.136Z,-3.53
2023-03-15T03:03:10.094Z,-3.62
2023-03-15T03:04:10.075Z,-3.56
2023-03-15T03:05:10.096Z,-3.56
2023-03-15T03:06:10.067Z,-3.60
2023-03-15T03:07:10.072Z,-3.71
2023-03-15T03:08:10.082Z,-3.64
2023-03-15T03:09:10.089Z,-3.57
2023-03-15T03:10:10.070Z,-3.54
2023-03-15T03:11:10.073Z,-3.46
2023-03-15T03:12:10.075Z,-3.57
2023-03-15T03:13:10.078Z,-3.60
2023-03-15T03:14:10.113Z,-3.62
2023-03-15T03:15:10.081Z,-3.59
2023-03-15T03:16:10.071Z,-3.59
2023-03-15T03:17:10.085Z,-3.54
2023-03-15T03:18:10.074Z,-3.59
2023-03-15T03:19:10.076Z,-3.46
2023-03-15T03:20:10.084Z,-3.57
2023-03-15T03:21:10.082Z,-3.53
2023-03-15T03:22:10.070Z,-3.56
2023-03-15T03:23:10.074Z,-3.53
2023-03-15T03:24:10.086Z,-3.60
2023-03-15T03:25:10.106Z,-3.75
2023-03-15T03:26:10.073Z,-3.64
2023-03-15T03:27:10.090Z,-3.69
2023-03-15T03:28:10.072Z,-3.78
2023-03-15T03:29:10.075Z,-3.69
2023-03-15T03:30:10.093Z,-3.82
2023-03-15T03:31:10.174Z,-3.72
2023-03-15T03:32:10.071Z,-3.91
2023-03-15T03:33:10.078Z,-3.83
2023-03-15T03:34:10.073Z,-3.82
2023-03-15T03:35:10.077Z,-3.86
2023-03-15T03:36:10.124Z,-3.86
2023-03-15T03:37:10.077Z,-3.96
2023-03-15T03:38:10.071Z,-3.97
2023-03-15T03:39:10.089Z,-3.99
2023-03-15T03:40:10.076Z,-4.03
2023-03-15T03:41:10.079Z,-4.01
2023-03-15T03:42:10.074Z,-3.99
2023-03-15T03:43:10.078Z,-3.99
2023-03-15T03:44:10.083Z,-4.03
2023-03-15T03:45:10.083Z,-4.06
2023-03-15T03:46:10.140Z,-4.10
2023-03-15T03:47:10.091Z,-4.07
2023-03-15T03:48:10.077Z,-4.10
2023-03-15T03:49:10.081Z,-4.14
2023-03-15T03:50:10.094Z,-4.03
2023-03-15T03:51:10.094Z,-3.99
2023-03-15T03:52:10.079Z,-3.86
2023-03-15T03:53:10.079Z,-4.03
2023-03-15T03:54:10.080Z,-4.04
2023-03-15T03:55:10.082Z,-4.00
2023-03-15T03:56:10.092Z,-4.06
2023-03-15T03:57:10.086Z,-4.01
2023-03-15T03:58:10.090Z,-3.99
2023-03-15T03:59:10.084Z,-3.96
2023-03-15T04:00:10.081Z,-4.01
2023-03-15T04:01:10.080Z,-3.99
2023-03-15T04:02:10.281Z,-3.90
2023-03-15T04:03:10.082Z,-3.85
2023-03-15T04:04:10.080Z,-3.83
2023-03-15T04:05:10.087Z,-3.86
2023-03-15T04:06:10.083Z,-3.71
2023-03-15T04:07:10.086Z,-3.75
2023-03-15T04:08:10.090Z,-3.67
2023-03-15T04:09:10.087Z,-3.71
2023-03-15T04:10:10.101Z,-3.71
2023-03-15T04:11:10.083Z,-3.69
2023-03-15T04:12:10.118Z,-3.72
2023-03-15T04:13:10.086Z,-3.69
2023-03-15T04:14:10.080Z,-3.76
2023-03-15T04:15:10.107Z,-3.62
2023-03-15T04:16:10.187Z,-3.72
2023-03-15T04:17:10.088Z,-3.72
2023-03-15T04:18:10.099Z,-3.75
2023-03-15T04:19:10.092Z,-3.69
2023-03-15T04:20:10.091Z,-3.62
2023-03-15T04:21:10.090Z,-3.75
2023-03-15T04:22:10.085Z,-3.71
2023-03-15T04:23:10.089Z,-3.75
2023-03-15T04:24:10.095Z,-3.69
2023-03-15T04:25:10.095Z,-3.59
2023-03-15T04:26:10.089Z,-3.59
2023-03-15T04:27:10.108Z,-3.54
2023-03-15T04:28:10.097Z,-3.59
2023-03-15T04:29:10.115Z,-3.59
2023-03-15T04:30:10.093Z,-3.53
2023-03-15T04:31:10.119Z,-3.60
2023-03-15T04:32:10.103Z,-3.59
2023-03-15T04:33:10.109Z,-3.60
2023-03-15T04:34:10.119Z,-3.72
2023-03-15T04:35:10.106Z,-3.81
2023-03-15T04:36:10.118Z,-3.85
2023-03-15T04:37:10.108Z,-3.85
2023-03-15T04:38:10.120Z,-3.82
2023-03-15T04:39:10.132Z,-3.83
2023-03-15T04:40:10.107Z,-3.83
2023-03-15T04:41:10.109Z,-3.86
2023-03-15T04:42:10.108Z,-3.88
2023-03-15T04:43:10.114Z,-3.86
2023-03-15T04:44:10.113Z,-3.93
2023-03-15T04:45:10.120Z,-3.86
2023-03-15T04:46:10.123Z,-3.91
2023-03-15T04:47:10.138Z,-3.94
2023-03-15T04:48:10.117Z,-3.85
2023-03-15T04:49:10.114Z,-3.82
2023-03-15T04:50:10.141Z,-3.82
2023-03-15T04:51:10.140Z,-3.85
2023-03-15T04:52:10.137Z,-3.82
2023-03-15T04:53:10.121Z,-3.88
2023-03-15T04:54:10.137Z,-3.91
2023-03-15T04:55:10.120Z,-3.90
2023-03-15T04:56:10.129Z,-3.86
2023-03-15T04:57:10.123Z,-3.86
2023-03-15T04:58:10.124Z,-3.85
2023-03-15T04:59:10.125Z,-3.83
2023-03-15T05:00:10.176Z,-3.83
2023-03-15T05:01:10.226Z,-3.83
2023-03-15T05:02:10.156Z,-3.88
2023-03-15T05:03:10.128Z,-3.79
2023-03-15T05:04:10.133Z,-3.83
2023-03-15T05:05:10.126Z,-3.85
2023-03-15T05:06:10.162Z,-3.79
2023-03-15T05:07:10.142Z,-3.83
2023-03-15T05:08:10.129Z,-3.79
2023-03-15T05:09:10.129Z,-3.76
2023-03-15T05:10:10.138Z,-3.85
2023-03-15T05:11:10.128Z,-3.83
2023-03-15T05:12:10.134Z,-3.88
2023-03-15T05:13:10.145Z,-3.86
2023-03-15T05:14:10.136Z,-3.83
2023-03-15T05:15:10.170Z,-3.85
2023-03-15T05:16:10.186Z,-3.83
2023-03-15T05:17:10.144Z,-3.81
2023-03-15T05:18:10.146Z,-3.83
2023-03-15T05:19:10.140Z,-3.76
2023-03-15T05:20:10.144Z,-3.75
2023-03-15T05:21:10.138Z,-3.76
2023-03-15T05:22:10.160Z,-3.69
2023-03-15T05:23:10.140Z,-3.66
2023-03-15T05:24:10.142Z,-3.78
2023-03-15T05:25:10.142Z,-3.66
2023-03-15T05:26:10.145Z,-3.72
2023-03-15T05:27:10.144Z,-3.76
2023-03-15T05:28:10.151Z,-3.86
2023-03-15T05:29:10.148Z,-3.82
2023-03-15T05:30:10.151Z,-3.88
2023-03-15T05:31:10.147Z,-3.90
2023-03-15T05:32:10.149Z,-3.88
2023-03-15T05:33:10.146Z,-3.90
2023-03-15T05:34:10.151Z,-3.88
2023-03-15T05:35:10.151Z,-3.91
2023-03-15T05:36:10.149Z,-3.86
2023-03-15T05:37:10.148Z,-3.85
2023-03-15T05:38:10.179Z,-3.86
2023-03-15T05:39:10.150Z,-3.82
2023-03-15T05:40:10.185Z,-3.85
2023-03-15T05:41:10.155Z,-3.85
2023-03-15T05:42:10.191Z,-3.81
2023-03-15T05:43:10.152Z,-3.76
2023-03-15T05:44:10.175Z,-3.88
2023-03-15T05:45:10.153Z,-3.91
2023-03-15T05:46:10.186Z,-3.99
2023-03-15T05:47:10.155Z,-3.96
2023-03-15T05:48:10.156Z,-3.94
2023-03-15T05:49:10.166Z,-3.97
2023-03-15T05:50:10.161Z,-4.00
2023-03-15T05:51:10.194Z,-4.06
2023-03-15T05:52:10.159Z,-4.03
2023-03-15T05:53:10.157Z,-4.15
2023-03-15T05:54:10.195Z,-4.20
2023-03-15T05:55:10.162Z,-4.21
2023-03-15T05:56:10.159Z,-4.32
2023-03-15T05:57:10.166Z,-4.28
2023-03-15T05:58:10.183Z,-4.28
2023-03-15T05:59:10.164Z,-4.24
2023-03-15T06:00:10.172Z,-4.28
2023-03-15T06:01:10.162Z,-4.28
2023-03-15T06:02:10.166Z,-4.22
2023-03-15T06:03:10.199Z,-4.25
2023-03-15T06:04:10.174Z,-4.29
2023-03-15T06:05:10.167Z,-4.35
2023-03-15T06:06:10.173Z,-4.32
2023-03-15T06:07:10.208Z,-4.35
2023-03-15T06:08:10.175Z,-4.35
2023-03-15T06:09:10.181Z,-4.33
2023-03-15T06:10:10.287Z,-4.33
2023-03-15T06:11:10.174Z,-4.29
2023-03-15T06:12:10.179Z,-4.24
2023-03-15T06:13:10.177Z,-4.17
2023-03-15T06:14:10.175Z,-4.15
2023-03-15T06:15:10.169Z,-4.22
2023-03-15T06:16:10.177Z,-4.30
2023-03-15T06:17:10.168Z,-4.33
2023-03-15T06:18:10.181Z,-4.17
2023-03-15T06:19:10.169Z,-4.17
2023-03-15T06:20:10.178Z,-4.20
2023-03-15T06:21:10.173Z,-4.06
2023-03-15T06:22:10.178Z,-4.07
2023-03-15T06:23:10.173Z,-3.96
2023-03-15T06:24:10.172Z,-4.00
2023-03-15T06:25:10.171Z,-3.88
2023-03-15T06:26:10.194Z,-3.88
2023-03-15T06:27:10.181Z,-3.85
2023-03-15T06:28:10.179Z,-3.85
2023-03-15T06:29:10.174Z,-3.88
2023-03-15T06:30:10.196Z,-3.85
2023-03-15T06:31:10.256Z,-3.82
2023-03-15T06:32:10.185Z,-3.79
2023-03-15T06:33:10.178Z,-3.88
2023-03-15T06:34:10.188Z,-3.83
2023-03-15T06:35:10.208Z,-3.82
2023-03-15T06:36:10.256Z,-3.75
2023-03-15T06:37:10.181Z,-3.75
2023-03-15T06:38:11.966Z,-3.78
2023-03-15T06:39:10.189Z,-3.69
2023-03-15T06:40:10.194Z,-3.76
2023-03-15T06:41:10.191Z,-3.88
2023-03-15T06:42:10.202Z,-3.75
2023-03-15T06:43:10.184Z,-3.86
2023-03-15T06:44:10.186Z,-3.88
2023-03-15T06:45:10.204Z,-3.75
2023-03-15T06:46:10.256Z,-3.82
2023-03-15T06:47:10.189Z,-3.85
2023-03-15T06:48:10.196Z,-3.75
2023-03-15T06:49:10.191Z,-3.83
2023-03-15T06:50:10.195Z,-3.85
2023-03-15T06:51:10.197Z,-3.88
2023-03-15T06:52:10.198Z,-4.01
2023-03-15T06:53:10.205Z,-4.18
2023-03-15T06:54:10.199Z,-4.14
2023-03-15T06:55:10.226Z,-4.14
2023-03-15T06:56:10.218Z,-4.10
2023-03-15T06:57:10.209Z,-4.14
2023-03-15T06:58:10.223Z,-4.06
2023-03-15T06:59:10.202Z,-3.99
2023-03-15T07:00:10.207Z,-4.12
2023-03-15T07:01:10.235Z,-4.04
2023-03-15T07:02:10.205Z,-4.15
2023-03-15T07:03:10.210Z,-4.01
2023-03-15T07:04:10.209Z,-4.15
2023-03-15T07:05:10.249Z,-4.06
2023-03-15T07:06:10.209Z,-4.03
2023-03-15T07:07:10.221Z,-3.97
2023-03-15T07:08:10.212Z,-3.94
2023-03-15T07:09:10.207Z,-3.94
2023-03-15T07:10:10.213Z,-3.90
2023-03-15T07:11:10.211Z,-3.86
2023-03-15T07:12:10.220Z,-3.83
2023-03-15T07:13:10.213Z,-3.76
2023-03-15T07:14:10.236Z,-3.75
2023-03-15T07:15:10.223Z,-3.86
2023-03-15T07:16:10.309Z,-3.86
2023-03-15T07:17:10.245Z,-3.72
2023-03-15T07:18:10.231Z,-3.71
2023-03-15T07:19:10.219Z,-3.72
2023-03-15T07:20:10.224Z,-3.60
2023-03-15T07:21:10.228Z,-3.54
2023-03-15T07:22:10.254Z,-3.31
2023-03-15T07:23:10.227Z,-3.31
2023-03-15T07:24:10.241Z,-3.33
2023-03-15T07:25:10.228Z,-3.25
2023-03-15T07:26:10.232Z,-3.18
2023-03-15T07:27:10.253Z,-3.10
2023-03-15T07:28:10.287Z,-3.03
2023-03-15T07:29:10.243Z,-2.97
2023-03-15T07:30:10.281Z,-2.85
2023-03-15T07:31:10.232Z,-2.88
2023-03-15T07:32:10.268Z,-2.70
2023-03-15T07:33:10.308Z,-2.61
2023-03-15T07:34:10.283Z,-2.48
2023-03-15T07:35:12.272Z,-2.48
2023-03-15T07:36:10.255Z,-2.55
2023-03-15T07:37:10.257Z,-2.45
2023-03-15T07:38:10.251Z,-2.37
2023-03-15T07:39:10.255Z,-2.24
2023-03-15T07:40:10.244Z,-2.18
2023-03-15T07:41:10.243Z,-2.10
2023-03-15T07:42:10.248Z,-2.05
2023-03-15T07:43:10.252Z,-1.95
2023-03-15T07:44:10.251Z,-1.97
2023-03-15T07:45:10.245Z,-1.87
2023-03-15T07:46:10.341Z,-1.80
2023-03-15T07:47:10.254Z,-1.82
2023-03-15T07:48:10.268Z,-1.69
2023-03-15T07:49:10.253Z,-1.66
2023-03-15T07:50:10.259Z,-1.58
2023-03-15T07:51:10.256Z,-1.54
2023-03-15T07:52:10.261Z,-1.40
2023-03-15T07:53:10.298Z,-1.43
2023-03-15T07:54:10.265Z,-1.33
2023-03-15T07:55:10.264Z,-1.33
2023-03-15T07:56:10.296Z,-1.34
2023-03-15T07:57:10.272Z,-1.31
2023-03-15T07:58:10.282Z,-1.20
2023-03-15T07:59:10.299Z,-1.04
2023-03-15T08:00:10.279Z,-1.10
2023-03-15T08:01:10.284Z,-0.95
2023-03-15T08:02:10.356Z,-0.91
2023-03-15T08:03:10.334Z,-0.92
2023-03-15T08:04:10.290Z,-0.83
2023-03-15T08:05:10.314Z,-0.80
2023-03-15T08:06:10.301Z,-0.76
2023-03-15T08:07:10.294Z,-0.82
2023-03-15T08:08:10.319Z,-0.79
2023-03-15T08:09:10.298Z,-1.15
2023-03-15T08:10:10.305Z,-1.56
2023-03-15T08:11:10.308Z,-1.92
2023-03-15T08:12:10.324Z,-1.98
2023-03-15T08:13:10.310Z,-1.87
2023-03-15T08:14:10.337Z,-1.69
2023-03-15T08:15:10.314Z,-1.51
2023-03-15T08:16:10.375Z,-1.41
2023-03-15T08:17:10.323Z,-1.25
2023-03-15T08:18:10.343Z,-1.02
2023-03-15T08:19:10.331Z,-1.01
2023-03-15T08:20:10.331Z,-0.94
2023-03-15T08:21:10.332Z,-0.89
2023-03-15T08:22:10.347Z,-0.78
2023-03-15T08:23:10.349Z,-0.72
2023-03-15T08:24:10.346Z,-0.54
2023-03-15T08:25:10.345Z,-0.39
2023-03-15T08:26:10.347Z,-0.85
2023-03-15T08:27:10.351Z,-0.94
2023-03-15T08:28:10.357Z,-0.98
2023-03-15T08:29:10.358Z,-1.17
2023-03-15T08:30:10.362Z,-1.13
2023-03-15T08:31:10.433Z,-1.10
2023-03-15T08:32:10.379Z,-0.91
2023-03-15T08:33:10.464Z,-0.79
2023-03-15T08:34:10.403Z,-0.78
2023-03-15T08:35:10.380Z,-0.80
2023-03-15T08:36:10.430Z,-0.80
2023-03-15T08:37:10.380Z,-0.78
2023-03-15T08:38:10.415Z,-0.62
2023-03-15T08:39:10.404Z,-0.64
2023-03-15T08:40:10.406Z,-0.64
2023-03-15T08:41:10.392Z,-0.65
2023-03-15T08:42:10.397Z,-0.46
2023-03-15T08:43:10.399Z,-0.42
2023-03-15T08:44:10.404Z,-0.19
2023-03-15T08:45:10.434Z,-0.43
2023-03-15T08:46:10.537Z,-0.55
2023-03-15T08:47:10.424Z,-0.49
2023-03-15T08:48:10.421Z,-0.40
2023-03-15T08:49:10.419Z,-0.33
2023-03-15T08:50:10.465Z,-1.05
2023-03-15T08:51:10.423Z,-1.19
2023-03-15T08:52:10.432Z,-1.25
2023-03-15T08:53:10.438Z,-1.17
2023-03-15T08:54:10.450Z,-0.91
2023-03-15T08:55:10.437Z,-1.05
2023-03-15T08:56:10.448Z,-1.02
2023-03-15T08:57:10.443Z,-1.02
2023-03-15T08:58:10.472Z,-0.98
2023-03-15T08:59:12.809Z,-0.82
2023-03-15T09:00:10.455Z,-1.20
2023-03-15T09:01:10.458Z,-1.20
2023-03-15T09:02:10.517Z,-1.16
2023-03-15T09:03:10.471Z,-1.05
2023-03-15T09:04:10.521Z,-0.89
2023-03-15T09:05:10.469Z,-0.76
2023-03-15T09:06:10.490Z,-0.75
2023-03-15T09:07:10.482Z,-0.73
2023-03-15T09:08:10.483Z,-0.64
2023-03-15T09:09:10.484Z,-0.73
2023-03-15T09:10:10.487Z,-0.76
2023-03-15T09:11:10.488Z,-0.62
2023-03-15T09:12:10.488Z,-0.57
2023-03-15T09:13:10.502Z,-0.47
2023-03-15T09:14:10.506Z,-0.37
2023-03-15T09:15:10.506Z,-0.15
2023-03-15T09:16:10.499Z,-0.01
2023-03-15T09:17:10.659Z,0.04
2023-03-15T09:18:10.510Z,0.15
2023-03-15T09:19:10.517Z,0.42
2023-03-15T09:20:10.517Z,0.21
2023-03-15T09:21:10.523Z,0.00
2023-03-15T09:22:17.038Z,-0.07
2023-03-15T09:23:10.534Z,-0.22
2023-03-15T09:24:10.537Z,-0.01
2023-03-15T09:25:10.543Z,0.32
2023-03-15T09:26:10.549Z,0.50
2023-03-15T09:27:10.547Z,0.20
2023-03-15T09:28:10.553Z,-0.10
2023-03-15T09:29:10.576Z,-0.26
2023-03-15T09:30:10.559Z,-0.25
2023-03-15T09:31:10.680Z,-0.33
2023-03-15T09:32:10.576Z,-0.49
2023-03-15T09:33:10.653Z,0.04
2023-03-15T09:34:10.576Z,0.21
2023-03-15T09:35:10.583Z,0.41
2023-03-15T09:36:10.602Z,0.55
2023-03-15T09:37:10.598Z,0.65
2023-03-15T09:38:10.647Z,0.68
2023-03-15T09:39:10.605Z,0.35
2023-03-15T09:40:10.604Z,-0.05
2023-03-15T09:41:10.609Z,0.02
2023-03-15T09:42:10.616Z,0.11
2023-03-15T09:43:10.619Z,0.24
2023-03-15T09:44:10.616Z,0.10
2023-03-15T09:45:10.629Z,0.33
2023-03-15T09:46:10.725Z,0.53
2023-03-15T09:47:10.635Z,0.68
2023-03-15T09:48:10.641Z,0.70
2023-03-15T09:49:10.648Z,1.00
2023-03-15T09:50:10.643Z,1.24
2023-03-15T09:51:10.654Z,1.63
2023-03-15T09:52:10.661Z,1.65
2023-03-15T09:53:10.662Z,1.69
2023-03-15T09:54:10.687Z,1.20
2023-03-15T09:55:10.675Z,0.58
2023-03-15T09:56:10.675Z,0.80
2023-03-15T09:57:10.688Z,1.37
2023-03-15T09:58:10.694Z,1.69
2023-03-15T09:59:10.730Z,1.79
2023-03-15T10:00:10.696Z,1.73
2023-03-15T10:01:10.772Z,1.87
2023-03-15T10:02:10.704Z,2.34
2023-03-15T10:03:10.718Z,2.54
2023-03-15T10:04:10.716Z,2.07
2023-03-15T10:05:10.734Z,1.16
2023-03-15T10:06:10.739Z,1.12
2023-03-15T10:07:10.742Z,0.60
2023-03-15T10:08:10.756Z,1.08
2023-03-15T10:09:10.753Z,1.41
2023-03-15T10:10:10.772Z,1.40
2023-03-15T10:11:10.758Z,1.70
2023-03-15T10:12:10.778Z,2.27
2023-03-15T10:13:10.772Z,2.18
2023-03-15T10:14:10.771Z,2.66
2023-03-15T10:15:10.787Z,2.78
2023-03-15T10:16:10.917Z,2.45
2023-03-15T10:17:10.797Z,2.38
2023-03-15T10:18:10.799Z,2.67
2023-03-15T10:19:10.805Z,2.21
2023-03-15T10:20:10.813Z,1.77
2023-03-15T10:21:10.820Z,2.07
2023-03-15T10:22:10.820Z,2.77
2023-03-15T10:23:10.837Z,3.42
2023-03-15T10:24:10.834Z,4.18
2023-03-15T10:25:10.840Z,4.69
2023-03-15T10:26:11.724Z,4.92
2023-03-15T10:27:10.860Z,4.52
2023-03-15T10:28:10.874Z,3.52
2023-03-15T10:29:10.876Z,3.06
2023-03-15T10:30:10.873Z,2.18
2023-03-15T10:31:11.246Z,2.06
2023-03-15T10:32:10.902Z,2.39
2023-03-15T10:33:10.916Z,2.79
2023-03-15T10:34:10.897Z,3.60
2023-03-15T10:35:10.911Z,4.06
2023-03-15T10:36:11.789Z,4.80
2023-03-15T10:37:10.925Z,5.28
2023-03-15T10:38:10.938Z,5.74
2023-03-15T10:39:10.939Z,6.01
2023-03-15T10:40:10.938Z,5.76
2023-03-15T10:41:11.575Z,5.61
2023-03-15T10:42:10.970Z,5.79
2023-03-15T10:43:10.962Z,5.57
2023-03-15T10:44:10.967Z,5.90
2023-03-15T10:45:10.977Z,5.97
2023-03-15T10:46:11.054Z,6.03
2023-03-15T10:47:22.489Z,6.14
2023-03-15T10:48:11.000Z,6.66
2023-03-15T10:49:11.023Z,6.92
2023-03-15T10:50:11.013Z,7.23
2023-03-15T10:51:12.546Z,7.24
2023-03-15T10:52:11.032Z,7.24
2023-03-15T10:53:11.044Z,5.38
2023-03-15T10:54:11.043Z,5.31
2023-03-15T10:55:11.056Z,4.20
2023-03-15T10:56:11.070Z,3.86
2023-03-15T10:57:11.074Z,4.33
2023-03-15T10:58:11.093Z,4.89
2023-03-15T10:59:13.026Z,5.09
2023-03-15T11:00:11.098Z,4.14
2023-03-15T11:01:11.117Z,3.10
2023-03-15T11:02:11.111Z,2.64
2023-03-15T11:03:11.215Z,2.56
2023-03-15T11:04:11.133Z,3.52
2023-03-15T11:05:11.142Z,4.34
2023-03-15T11:06:11.151Z,5.07
2023-03-15T11:07:11.159Z,5.76
2023-03-15T11:08:11.163Z,6.38
2023-03-15T11:09:11.184Z,6.89
2023-03-15T11:10:11.179Z,6.84
2023-03-15T11:11:11.196Z,7.27
2023-03-15T11:12:11.197Z,7.55
2023-03-15T11:13:11.212Z,7.32
2023-03-15T11:14:11.233Z,6.58
2023-03-15T11:15:11.226Z,5.94
2023-03-15T11:16:11.253Z,4.78
2023-03-15T11:17:11.248Z,5.51
2023-03-15T11:18:11.246Z,4.22
2023-03-15T11:19:11.264Z,4.84
2023-03-15T11:20:11.280Z,4.20
2023-03-15T11:21:11.294Z,4.85
2023-03-15T11:22:11.284Z,5.56
2023-03-15T11:23:11.295Z,6.40
2023-03-15T11:24:11.304Z,6.55
2023-03-15T11:25:11.317Z,5.64
2023-03-15T11:26:14.071Z,4.99
2023-03-15T11:27:11.334Z,3.80
2023-03-15T11:28:11.341Z,3.35
2023-03-15T11:29:11.352Z,3.13
2023-03-15T11:30:11.378Z,3.62
2023-03-15T11:31:11.449Z,3.39
2023-03-15T11:32:11.381Z,3.57
2023-03-15T11:33:11.394Z,4.33
2023-03-15T11:34:11.409Z,4.97
2023-03-15T11:35:11.406Z,5.75
2023-03-15T11:36:12.435Z,6.25
2023-03-15T11:37:13.128Z,6.87
2023-03-15T11:38:15.236Z,7.27
2023-03-15T11:39:11.450Z,7.10
2023-03-15T11:40:12.865Z,6.99
2023-03-15T11:41:11.479Z,7.05
2023-03-15T11:42:11.476Z,6.74
2023-03-15T11:43:11.486Z,7.15
2023-03-15T11:44:11.489Z,6.01
2023-03-15T11:45:11.506Z,4.66
2023-03-15T11:46:11.668Z,5.07
2023-03-15T11:47:11.529Z,4.48
2023-03-15T11:48:11.530Z,4.12
2023-03-15T11:49:11.543Z,3.17
2023-03-15T11:50:11.549Z,3.83
2023-03-15T11:51:11.572Z,4.32
2023-03-15T11:52:11.585Z,4.75
2023-03-15T11:53:11.581Z,5.35
2023-03-15T11:54:11.590Z,5.39
2023-03-15T11:55:11.601Z,4.66
2023-03-15T11:56:11.611Z,4.80
2023-03-15T11:57:11.623Z,5.54
2023-03-15T11:58:11.625Z,5.75
2023-03-15T11:59:11.636Z,5.75
2023-03-15T12:00:11.708Z,6.11
2023-03-15T12:01:11.664Z,6.03
2023-03-15T12:02:11.753Z,6.08
2023-03-15T12:03:11.726Z,6.48
2023-03-15T12:04:11.686Z,7.15
2023-03-15T12:05:17.850Z,7.43
2023-03-15T12:06:11.704Z,7.39
2023-03-15T12:07:11.716Z,7.27
2023-03-15T12:08:11.719Z,7.02
2023-03-15T12:09:11.735Z,7.40
2023-03-15T12:10:11.741Z,7.30
2023-03-15T12:11:11.751Z,7.53
2023-03-15T12:12:11.767Z,7.85
2023-03-15T12:13:11.774Z,8.16
2023-03-15T12:14:11.783Z,6.98
2023-03-15T12:15:11.835Z,7.60
2023-03-15T12:16:11.821Z,7.79
2023-03-15T12:17:11.812Z,7.50
2023-03-15T12:18:11.841Z,7.32
2023-03-15T12:19:11.837Z,7.06
2023-03-15T12:20:11.853Z,6.51
2023-03-15T12:21:11.854Z,6.98
2023-03-15T12:22:11.868Z,6.37
2023-03-15T12:23:11.881Z,6.30
2023-03-15T12:24:11.894Z,6.28
2023-03-15T12:25:11.898Z,6.11
2023-03-15T12:26:11.920Z,6.73
2023-03-15T12:27:11.923Z,7.17
2023-03-15T12:28:11.955Z,7.60
2023-03-15T12:29:11.946Z,8.18
2023-03-15T12:30:11.950Z,8.59
2023-03-15T12:31:12.009Z,9.13
2023-03-15T12:32:11.971Z,7.40
2023-03-15T12:33:11.984Z,6.89
2023-03-15T12:34:12.019Z,7.03
2023-03-15T12:35:13.932Z,6.14
2023-03-15T12:36:12.103Z,6.09
2023-03-15T12:37:12.029Z,5.64
2023-03-15T12:38:12.031Z,6.04
2023-03-15T12:39:12.048Z,5.82
2023-03-15T12:40:12.060Z,6.11
2023-03-15T12:41:12.087Z,6.74
2023-03-15T12:42:12.129Z,6.21
2023-03-15T12:43:12.110Z,5.43
2023-03-15T12:44:12.101Z,5.82
2023-03-15T12:45:12.114Z,6.01
2023-03-15T12:46:12.134Z,6.09
2023-03-15T12:47:12.154Z,6.54
2023-03-15T12:48:12.142Z,6.98
2023-03-15T12:49:12.173Z,7.53
2023-03-15T12:50:12.195Z,7.23
2023-03-15T12:51:12.178Z,7.83
2023-03-15T12:52:12.194Z,6.89
2023-03-15T12:53:12.203Z,5.42
2023-03-15T12:54:12.208Z,6.06
2023-03-15T12:55:12.236Z,4.59
2023-03-15T12:56:12.232Z,4.67
2023-03-15T12:57:12.243Z,4.26
2023-03-15T12:58:12.252Z,4.09
2023-03-15T12:59:12.269Z,3.91